Bookmark and Share
Track history (hours):
 

Christine Anderson

More information available from US FCC via Universal Licensing System and Coast Guard Vessel Documentation Center.

Last reported at 2014-Apr-17 03:17 UTC. Time now 2014-Apr-17 09:38 UTC.
Position N 47°10' W 122°36'.

MMSI: 366659730.

NotesDate/timePositionNaut miles runAvg speedWind from/ knotsBaromVisibWave heightAir tempDewpointWater temp
2014-Apr-17 03:17N 47°10' W 122°36'0 0.5
2014-Apr-17 02:33N 47°11' W 122°37'0 0.1
2014-Apr-17 01:32N 47°11' W 122°36'3 2.8
2014-Apr-17 00:32N 47°11' W 122°40'0 0.1
2014-Apr-16 23:31N 47°11' W 122°41'0 0.0
2014-Apr-16 22:29N 47°11' W 122°41'0 0.0
2014-Apr-16 21:29N 47°11' W 122°41'3 2.3
2014-Apr-16 20:10N 47°10' W 122°36'3 4.4
2014-Apr-16 19:29N 47°11' W 122°41'2 2.2
2014-Apr-16 18:33N 47°11' W 122°38'2 1.8
2014-Apr-16 17:33N 47°11' W 122°40'0 0.3
2014-Apr-16 16:33N 47°11' W 122°41'0 0.4
2014-Apr-16 15:33N 47°11' W 122°40'0 0.0
2014-Apr-16 14:33N 47°11' W 122°40'0 0.2
2014-Apr-16 13:33N 47°11' W 122°40'2 2.2
2014-Apr-16 12:27N 47°10' W 122°36'0 0.0
2014-Apr-16 03:19N 47°10' W 122°36'0 0.2
2014-Apr-16 02:33N 47°11' W 122°36'0 0.1
2014-Apr-16 01:32N 47°10' W 122°36'3 3.0
2014-Apr-16 00:33N 47°11' W 122°40'0 0.1
2014-Apr-15 23:29N 47°11' W 122°41'0 0.0
2014-Apr-15 22:29N 47°11' W 122°41'0 0.0
2014-Apr-15 21:33N 47°11' W 122°41'3 3.1
2014-Apr-15 20:33N 47°10' W 122°36'3 2.8
2014-Apr-15 19:33N 47°11' W 122°40'3 2.7
2014-Apr-15 18:30N 47°10' W 122°36'3 3.0
2014-Apr-15 17:30N 47°11' W 122°41'0 0.0
2014-Apr-15 16:32N 47°11' W 122°41'0 0.2
2014-Apr-15 15:33N 47°11' W 122°40'0 0.1
2014-Apr-15 14:33N 47°11' W 122°40'0 0.1
2014-Apr-15 12:33N 47°11' W 122°40'3 2.6
2014-Apr-15 11:34N 47°10' W 122°36'0 0.0
2014-Apr-15 01:33N 47°11' W 122°36'0 0.4
2014-Apr-15 00:34N 47°11' W 122°36'3 2.9
2014-Apr-14 23:34N 47°11' W 122°40'0 0.1
2014-Apr-14 22:33N 47°11' W 122°41'0 0.0
2014-Apr-14 21:33N 47°11' W 122°41'0 0.0
2014-Apr-14 20:33N 47°11' W 122°41'0 0.1
2014-Apr-14 18:34N 47°11' W 122°40'3 2.9
2014-Apr-14 17:33N 47°10' W 122°36'2 2.4
2014-Apr-14 16:33N 47°11' W 122°40'0 0.2
2014-Apr-14 15:33N 47°11' W 122°40'0 0.2
2014-Apr-14 14:33N 47°11' W 122°40'0 0.0
2014-Apr-14 13:33N 47°11' W 122°40'2 1.2
2014-Apr-14 11:33N 47°10' W 122°36'2 0.2
2014-Apr-13 22:24N 47°11' W 122°39'2 1.1
2014-Apr-13 20:29N 47°10' W 122°36'3 3.1
2014-Apr-13 19:33N 47°11' W 122°40'3 2.9
2014-Apr-13 18:33N 47°10' W 122°36'2 1.3
2014-Apr-13 17:15N 47°11' W 122°39'1 1.5
2014-Apr-13 16:33N 47°11' W 122°40'0 0.4
2014-Apr-13 15:33N 47°11' W 122°40'0 0.2
2014-Apr-13 14:33N 47°11' W 122°40'0 0.0
2014-Apr-13 05:33N 47°11' W 122°40'3 2.4
2014-Apr-13 04:28N 47°10' W 122°36'0 0.0
2014-Apr-13 03:18N 47°10' W 122°36'0 0.0
2014-Apr-13 02:31N 47°10' W 122°36'0 0.3
2014-Apr-13 01:33N 47°11' W 122°37'3 2.6
2014-Apr-13 00:30N 47°11' W 122°41'0 0.1
2014-Apr-12 23:26N 47°11' W 122°40'0 0.0
2014-Apr-12 22:26N 47°11' W 122°40'1 1.1
2014-Apr-12 21:19N 47°11' W 122°39'1 0.5
2014-Apr-12 19:33N 47°11' W 122°40'3 2.1
2014-Apr-12 18:19N 47°10' W 122°36'3 3.2
2014-Apr-12 17:32N 47°11' W 122°40'0 0.1
2014-Apr-12 16:34N 47°11' W 122°40'0 0.1
2014-Apr-12 15:32N 47°11' W 122°40'0 0.1
2014-Apr-12 14:33N 47°11' W 122°40'0 0.0
2014-Apr-12 13:33N 47°11' W 122°40'2 2.4
2014-Apr-12 12:33N 47°10' W 122°36'0 0.0
2014-Apr-12 06:32N 47°10' W 122°36'0 0.0
2014-Apr-12 05:33N 47°10' W 122°36'0 0.0
2014-Apr-12 04:33N 47°10' W 122°36'2 2.2
2014-Apr-12 03:33N 47°11' W 122°39'0 0.4
2014-Apr-12 02:34N 47°11' W 122°40'1 1.3
2014-Apr-12 01:33N 47°11' W 122°38'1 1.2
2014-Apr-12 00:33N 47°10' W 122°36'0 0.0
2014-Apr-11 23:33N 47°10' W 122°36'3 3.0
2014-Apr-11 22:32N 47°11' W 122°41'0 0.0
2014-Apr-11 21:33N 47°11' W 122°41'3 3.0
2014-Apr-11 20:33N 47°10' W 122°36'3 2.8
2014-Apr-11 19:33N 47°11' W 122°40'3 2.7
2014-Apr-11 18:33N 47°10' W 122°36'3 2.5
2014-Apr-11 17:33N 47°11' W 122°40'0 0.0
2014-Apr-11 16:33N 47°11' W 122°40'0 0.0
2014-Apr-11 15:33N 47°11' W 122°40'0 0.1
2014-Apr-11 14:33N 47°11' W 122°40'0 0.2
2014-Apr-11 13:33N 47°11' W 122°40'3 2.8
2014-Apr-11 12:33N 47°10' W 122°36'1 0.1
2014-Apr-11 04:33N 47°10' W 122°37'1 0.8
2014-Apr-11 03:29N 47°10' W 122°36'0 0.5
2014-Apr-11 02:33N 47°11' W 122°37'0 0.4
2014-Apr-11 01:32N 47°11' W 122°36'3 3.0
2014-Apr-11 00:33N 47°11' W 122°41'0 0.0
2014-Apr-10 23:33N 47°11' W 122°41'0 0.0
2014-Apr-10 22:33N 47°11' W 122°41'0 0.0
2014-Apr-10 21:32N 47°11' W 122°41'3 3.1
2014-Apr-10 20:34N 47°10' W 122°36'3 3.0
2014-Apr-10 19:34N 47°11' W 122°41'3 2.1
2014-Apr-10 18:08N 47°10' W 122°36'3 4.4
2014-Apr-10 17:33N 47°11' W 122°40'0 0.1
2014-Apr-10 16:33N 47°11' W 122°40'0 0.1
2014-Apr-10 15:33N 47°11' W 122°40'0 0.2
2014-Apr-10 14:33N 47°11' W 122°40'0 0.2
2014-Apr-10 13:33N 47°11' W 122°40'3 2.6
2014-Apr-10 12:30N 47°10' W 122°36'0 0.0
2014-Apr-10 03:17N 47°10' W 122°36'0 0.0
2014-Apr-10 02:20N 47°10' W 122°36'0 0.3
2014-Apr-10 01:33N 47°11' W 122°36'3 2.8
2014-Apr-10 00:33N 47°11' W 122°40'1 1.0
2014-Apr-09 23:33N 47°11' W 122°39'0 0.5
2014-Apr-09 22:33N 47°11' W 122°40'1 0.8
2014-Apr-09 21:33N 47°11' W 122°41'3 3.0
2014-Apr-09 20:31N 47°10' W 122°36'3 2.8
2014-Apr-09 19:33N 47°11' W 122°40'3 2.6
2014-Apr-09 18:31N 47°10' W 122°36'3 2.6
2014-Apr-09 17:33N 47°11' W 122°40'0 0.1
2014-Apr-09 16:33N 47°11' W 122°40'0 0.1
2014-Apr-09 15:33N 47°11' W 122°40'0 0.1
2014-Apr-09 14:33N 47°11' W 122°40'0 0.1
2014-Apr-09 13:33N 47°11' W 122°40'2 2.2
2014-Apr-09 12:26N 47°10' W 122°36'0 0.0
2014-Apr-09 03:18N 47°10' W 122°36'0 0.0
2014-Apr-09 02:33N 47°10' W 122°36'1 0.5
2014-Apr-09 01:33N 47°10' W 122°37'2 2.4
2014-Apr-09 00:32N 47°11' W 122°40'0 0.2
2014-Apr-08 23:33N 47°11' W 122°40'0 0.2
2014-Apr-08 22:33N 47°11' W 122°40'1 0.5
2014-Apr-08 21:33N 47°11' W 122°41'3 3.0
2014-Apr-08 20:33N 47°10' W 122°36'3 2.7
2014-Apr-08 19:33N 47°11' W 122°40'3 2.7
2014-Apr-08 18:33N 47°10' W 122°36'3 3.0
2014-Apr-08 17:33N 47°11' W 122°40'0 0.3
2014-Apr-08 16:33N 47°11' W 122°40'0 0.4
2014-Apr-08 15:30N 47°11' W 122°41'0 0.4
2014-Apr-08 14:33N 47°11' W 122°40'0 0.1
2014-Apr-08 13:33N 47°11' W 122°40'3 2.4
2014-Apr-08 12:31N 47°10' W 122°36'0 0.0
2014-Apr-08 03:17N 47°10' W 122°36'0 0.5
2014-Apr-08 02:33N 47°11' W 122°37'0 0.1
2014-Apr-08 01:33N 47°11' W 122°37'3 2.5
2014-Apr-08 00:30N 47°11' W 122°41'0 0.0
2014-Apr-07 23:33N 47°11' W 122°41'0 0.0
2014-Apr-07 22:33N 47°11' W 122°41'0 0.0
2014-Apr-07 21:31N 47°11' W 122°41'3 3.1
2014-Apr-07 20:32N 47°10' W 122°36'2 2.4
2014-Apr-07 19:33N 47°11' W 122°40'1 0.2
2014-Apr-07 17:16N 47°11' W 122°40'1 0.8
2014-Apr-07 16:33N 47°11' W 122°40'0 0.1
2014-Apr-07 15:33N 47°11' W 122°40'0 0.1
2014-Apr-07 14:33N 47°11' W 122°40'0 0.2
2014-Apr-07 13:32N 47°11' W 122°40'2 0.2
2014-Apr-07 04:33N 47°10' W 122°37'1 0.9
2014-Apr-07 03:33N 47°10' W 122°36'  

Dump ship's entire track history

sailing weather and tide predictions

Christine Anderson — WCN2606 — position and weather